sensor_id;sensor_type;location;lat;lon;timestamp;pressure;altitude;pressure_sealevel;temperature;humidity
36254;BME280;22291;52.250;21.228;2023-04-16T00:00:23;100170.97;;;7.61;92.36
36254;BME280;22291;52.250;21.228;2023-04-16T00:02:50;100174.19;;;7.61;92.39
36254;BME280;22291;52.250;21.228;2023-04-16T00:05:17;100177.15;;;7.62;92.51
36254;BME280;22291;52.250;21.228;2023-04-16T00:07:43;100171.79;;;7.59;92.54
36254;BME280;22291;52.250;21.228;2023-04-16T00:10:10;100167.46;;;7.61;92.59
36254;BME280;22291;52.250;21.228;2023-04-16T00:12:36;100179.58;;;7.61;92.61
36254;BME280;22291;52.250;21.228;2023-04-16T00:15:06;100173.98;;;7.57;92.64
36254;BME280;22291;52.250;21.228;2023-04-16T00:17:33;100178.86;;;7.55;92.71
36254;BME280;22291;52.250;21.228;2023-04-16T00:19:59;100186.66;;;7.54;92.80
36254;BME280;22291;52.250;21.228;2023-04-16T00:22:25;100181.60;;;7.53;92.88
36254;BME280;22291;52.250;21.228;2023-04-16T00:24:52;100177.85;;;7.51;93.25
36254;BME280;22291;52.250;21.228;2023-04-16T00:27:19;100178.14;;;7.50;92.99
36254;BME280;22291;52.250;21.228;2023-04-16T00:29:47;100171.70;;;7.48;93.08
36254;BME280;22291;52.250;21.228;2023-04-16T00:32:13;100168.73;;;7.47;93.37
36254;BME280;22291;52.250;21.228;2023-04-16T00:34:41;100172.25;;;7.47;93.31
36254;BME280;22291;52.250;21.228;2023-04-16T00:37:10;100170.91;;;7.47;93.48
36254;BME280;22291;52.250;21.228;2023-04-16T00:39:36;100174.12;;;7.47;93.48
36254;BME280;22291;52.250;21.228;2023-04-16T00:42:04;100171.43;;;7.47;93.79
36254;BME280;22291;52.250;21.228;2023-04-16T00:44:30;100180.06;;;7.46;93.74
36254;BME280;22291;52.250;21.228;2023-04-16T00:46:58;100177.37;;;7.46;93.69
36254;BME280;22291;52.250;21.228;2023-04-16T00:49:29;100175.23;;;7.46;93.87
36254;BME280;22291;52.250;21.228;2023-04-16T00:51:56;100172.27;;;7.45;93.87
36254;BME280;22291;52.250;21.228;2023-04-16T00:54:24;100171.48;;;7.44;94.01
36254;BME280;22291;52.250;21.228;2023-04-16T00:56:52;100176.29;;;7.47;94.14
36254;BME280;22291;52.250;21.228;2023-04-16T00:59:20;100177.31;;;7.49;94.20
36254;BME280;22291;52.250;21.228;2023-04-16T01:01:47;100180.01;;;7.49;94.09
36254;BME280;22291;52.250;21.228;2023-04-16T01:04:14;100172.99;;;7.51;94.29
36254;BME280;22291;52.250;21.228;2023-04-16T01:06:40;100174.34;;;7.51;94.38
36254;BME280;22291;52.250;21.228;2023-04-16T01:09:06;100178.64;;;7.52;94.56
36254;BME280;22291;52.250;21.228;2023-04-16T01:11:34;100180.25;;;7.53;94.55
36254;BME280;22291;52.250;21.228;2023-04-16T01:14:04;100177.56;;;7.53;94.62
36254;BME280;22291;52.250;21.228;2023-04-16T01:16:32;100177.80;;;7.54;94.61
36254;BME280;22291;52.250;21.228;2023-04-16T01:18:58;100174.55;;;7.54;94.51
36254;BME280;22291;52.250;21.228;2023-04-16T01:21:25;100168.88;;;7.56;94.54
36254;BME280;22291;52.250;21.228;2023-04-16T01:23:53;100173.69;;;7.59;94.63
36254;BME280;22291;52.250;21.228;2023-04-16T01:26:19;100172.61;;;7.60;94.46
36254;BME280;22291;52.250;21.228;2023-04-16T01:28:47;100177.44;;;7.60;94.42
36254;BME280;22291;52.250;21.228;2023-04-16T01:31:13;100175.02;;;7.61;94.39
36254;BME280;22291;52.250;21.228;2023-04-16T01:33:41;100180.34;;;7.64;94.40
36254;BME280;22291;52.250;21.228;2023-04-16T01:36:07;100185.72;;;7.64;94.39
36254;BME280;22291;52.250;21.228;2023-04-16T01:38:34;100186.23;;;7.66;94.36
36254;BME280;22291;52.250;21.228;2023-04-16T01:41:00;100186.50;;;7.67;94.24
36254;BME280;22291;52.250;21.228;2023-04-16T01:43:28;100178.42;;;7.67;94.21
36254;BME280;22291;52.250;21.228;2023-04-16T01:46:12;100177.62;;;7.66;94.16
36254;BME280;22291;52.250;21.228;2023-04-16T01:48:49;100179.77;;;7.67;94.13
36254;BME280;22291;52.250;21.228;2023-04-16T01:51:18;100176.81;;;7.66;93.97
36254;BME280;22291;52.250;21.228;2023-04-16T01:53:44;100185.44;;;7.65;93.94
36254;BME280;22291;52.250;21.228;2023-04-16T01:56:10;100187.34;;;7.65;93.88
36254;BME280;22291;52.250;21.228;2023-04-16T01:58:36;100190.05;;;7.62;93.90
36254;BME280;22291;52.250;21.228;2023-04-16T02:01:05;100191.16;;;7.61;93.93
36254;BME280;22291;52.250;21.228;2023-04-16T02:03:33;100196.28;;;7.60;93.94
36254;BME280;22291;52.250;21.228;2023-04-16T02:06:00;100195.99;;;7.62;94.04
36254;BME280;22291;52.250;21.228;2023-04-16T02:08:26;100195.72;;;7.61;94.10
36254;BME280;22291;52.250;21.228;2023-04-16T02:10:53;100196.78;;;7.62;94.14
36254;BME280;22291;52.250;21.228;2023-04-16T02:13:19;100202.14;;;7.65;94.20
36254;BME280;22291;52.250;21.228;2023-04-16T02:15:47;100200.53;;;7.64;94.15
36254;BME280;22291;52.250;21.228;2023-04-16T02:18:17;100201.59;;;7.65;94.04
36254;BME280;22291;52.250;21.228;2023-04-16T02:20:46;100207.27;;;7.64;93.99
36254;BME280;22291;52.250;21.228;2023-04-16T02:23:15;100204.34;;;7.63;94.01
36254;BME280;22291;52.250;21.228;2023-04-16T02:25:45;100208.39;;;7.60;93.79
36254;BME280;22291;52.250;21.228;2023-04-16T02:28:15;100201.45;;;7.57;93.80
36254;BME280;22291;52.250;21.228;2023-04-16T02:30:45;100209.81;;;7.55;93.79
36254;BME280;22291;52.250;21.228;2023-04-16T02:33:11;100216.05;;;7.51;93.83
36254;BME280;22291;52.250;21.228;2023-04-16T02:35:40;100215.55;;;7.48;93.98
36254;BME280;22291;52.250;21.228;2023-04-16T02:38:07;100217.45;;;7.48;93.97
36254;BME280;22291;52.250;21.228;2023-04-16T02:40:35;100223.39;;;7.47;94.01
36254;BME280;22291;52.250;21.228;2023-04-16T02:43:01;100223.67;;;7.46;93.97
36254;BME280;22291;52.250;21.228;2023-04-16T02:45:27;100223.98;;;7.42;94.15
36254;BME280;22291;52.250;21.228;2023-04-16T02:47:53;100228.30;;;7.40;94.19
36254;BME280;22291;52.250;21.228;2023-04-16T02:50:19;100228.06;;;7.39;94.31
36254;BME280;22291;52.250;21.228;2023-04-16T02:52:47;100229.65;;;7.40;94.59
36254;BME280;22291;52.250;21.228;2023-04-16T02:55:13;100229.65;;;7.40;94.51
36254;BME280;22291;52.250;21.228;2023-04-16T02:57:39;100233.69;;;7.40;94.55
36254;BME280;22291;52.250;21.228;2023-04-16T03:00:11;100239.35;;;7.39;94.46
36254;BME280;22291;52.250;21.228;2023-04-16T03:02:38;100248.02;;;7.36;94.27
36254;BME280;22291;52.250;21.228;2023-04-16T03:05:08;100251.52;;;7.34;94.34
36254;BME280;22291;52.250;21.228;2023-04-16T03:07:34;100251.02;;;7.32;94.47
36254;BME280;22291;52.250;21.228;2023-04-16T03:10:01;100255.61;;;7.31;94.55
36254;BME280;22291;52.250;21.228;2023-04-16T03:12:29;100247.27;;;7.30;94.59
36254;BME280;22291;52.250;21.228;2023-04-16T03:14:58;100256.45;;;7.29;94.61
36254;BME280;22291;52.250;21.228;2023-04-16T03:17:25;100258.08;;;7.27;94.63
36254;BME280;22291;52.250;21.228;2023-04-16T03:19:51;100263.47;;;7.25;94.60
36254;BME280;22291;52.250;21.228;2023-04-16T03:22:17;100258.14;;;7.22;94.65
36254;BME280;22291;52.250;21.228;2023-04-16T03:24:43;100253.83;;;7.21;94.81
36254;BME280;22291;52.250;21.228;2023-04-16T03:27:09;100258.66;;;7.22;94.96
36254;BME280;22291;52.250;21.228;2023-04-16T03:29:38;100261.95;;;7.19;94.86
36254;BME280;22291;52.250;21.228;2023-04-16T03:32:06;100262.23;;;7.17;95.29
36254;BME280;22291;52.250;21.228;2023-04-16T03:34:32;100254.17;;;7.15;95.39
36254;BME280;22291;52.250;21.228;2023-04-16T03:36:58;100260.94;;;7.12;95.32
36254;BME280;22291;52.250;21.228;2023-04-16T03:39:26;100257.97;;;7.14;95.55
36254;BME280;22291;52.250;21.228;2023-04-16T03:41:52;100258.78;;;7.11;95.60
36254;BME280;22291;52.250;21.228;2023-04-16T03:44:21;100256.64;;;7.11;95.64
36254;BME280;22291;52.250;21.228;2023-04-16T03:46:47;100254.74;;;7.11;95.72
36254;BME280;22291;52.250;21.228;2023-04-16T03:49:13;100253.11;;;7.13;95.69
36254;BME280;22291;52.250;21.228;2023-04-16T03:51:40;100252.59;;;7.14;96.03
36254;BME280;22291;52.250;21.228;2023-04-16T03:54:06;100258.77;;;7.14;95.93
36254;BME280;22291;52.250;21.228;2023-04-16T03:56:32;100251.48;;;7.15;96.10
36254;BME280;22291;52.250;21.228;2023-04-16T03:58:58;100259.27;;;7.16;96.16
36254;BME280;22291;52.250;21.228;2023-04-16T04:01:24;100259.83;;;7.16;96.10
36254;BME280;22291;52.250;21.228;2023-04-16T04:03:50;100257.37;;;7.17;96.21
36254;BME280;22291;52.250;21.228;2023-04-16T04:06:16;100261.67;;;7.18;96.26
36254;BME280;22291;52.250;21.228;2023-04-16T04:08:42;100256.03;;;7.17;96.21
36254;BME280;22291;52.250;21.228;2023-04-16T04:11:08;100253.61;;;7.18;96.39
36254;BME280;22291;52.250;21.228;2023-04-16T04:13:37;100255.73;;;7.21;96.36
36254;BME280;22291;52.250;21.228;2023-04-16T04:16:06;100259.48;;;7.22;96.48
36254;BME280;22291;52.250;21.228;2023-04-16T04:18:32;100260.83;;;7.22;96.53
36254;BME280;22291;52.250;21.228;2023-04-16T04:20:58;100274.52;;;7.23;96.50
36254;BME280;22291;52.250;21.228;2023-04-16T04:23:26;100266.67;;;7.27;96.64
36254;BME280;22291;52.250;21.228;2023-04-16T04:25:54;100271.81;;;7.26;96.51
36254;BME280;22291;52.250;21.228;2023-04-16T04:28:20;100277.19;;;7.26;96.34
36254;BME280;22291;52.250;21.228;2023-04-16T04:30:46;100279.09;;;7.25;96.42
36254;BME280;22291;52.250;21.228;2023-04-16T04:33:12;100284.20;;;7.24;96.36
36254;BME280;22291;52.250;21.228;2023-04-16T04:35:39;100287.16;;;7.25;96.60
36254;BME280;22291;52.250;21.228;2023-04-16T04:38:05;100289.85;;;7.25;96.44
36254;BME280;22291;52.250;21.228;2023-04-16T04:40:31;100281.47;;;7.27;96.67
36254;BME280;22291;52.250;21.228;2023-04-16T04:42:58;100292.23;;;7.27;96.49
36254;BME280;22291;52.250;21.228;2023-04-16T04:45:24;100291.70;;;7.27;96.58
36254;BME280;22291;52.250;21.228;2023-04-16T04:47:54;100295.70;;;7.30;96.51
36254;BME280;22291;52.250;21.228;2023-04-16T04:50:23;100295.97;;;7.31;96.52
36254;BME280;22291;52.250;21.228;2023-04-16T04:52:49;100301.84;;;7.36;96.79
36254;BME280;22291;52.250;21.228;2023-04-16T04:55:16;100306.61;;;7.41;96.94
36254;BME280;22291;52.250;21.228;2023-04-16T04:57:45;100318.39;;;7.45;96.79
36254;BME280;22291;52.250;21.228;2023-04-16T05:00:14;100320.28;;;7.47;96.34
36254;BME280;22291;52.250;21.228;2023-04-16T05:02:41;100316.25;;;7.45;95.90
36254;BME280;22291;52.250;21.228;2023-04-16T05:05:10;100322.43;;;7.45;95.98
36254;BME280;22291;52.250;21.228;2023-04-16T05:07:36;100321.92;;;7.43;95.69
36254;BME280;22291;52.250;21.228;2023-04-16T05:10:02;100325.41;;;7.44;95.74
36254;BME280;22291;52.250;21.228;2023-04-16T05:12:31;100317.33;;;7.44;95.71
36254;BME280;22291;52.250;21.228;2023-04-16T05:14:58;100319.23;;;7.43;95.74
36254;BME280;22291;52.250;21.228;2023-04-16T05:17:24;100324.06;;;7.44;95.62
36254;BME280;22291;52.250;21.228;2023-04-16T05:19:52;100323.78;;;7.45;95.62
36254;BME280;22291;52.250;21.228;2023-04-16T05:22:18;100325.16;;;7.43;95.57
36254;BME280;22291;52.250;21.228;2023-04-16T05:24:44;100326.80;;;7.41;95.61
36254;BME280;22291;52.250;21.228;2023-04-16T05:27:10;100333.20;;;7.45;95.76
36254;BME280;22291;52.250;21.228;2023-04-16T05:29:36;100332.12;;;7.46;95.61
36254;BME280;22291;52.250;21.228;2023-04-16T05:32:05;100338.80;;;7.49;95.64
36254;BME280;22291;52.250;21.228;2023-04-16T05:34:31;100340.13;;;7.52;95.81
36254;BME280;22291;52.250;21.228;2023-04-16T05:36:57;100335.81;;;7.53;95.76
36254;BME280;22291;52.250;21.228;2023-04-16T05:39:23;100334.69;;;7.57;95.86
36254;BME280;22291;52.250;21.228;2023-04-16T05:41:51;100339.22;;;7.61;95.92
36254;BME280;22291;52.250;21.228;2023-04-16T05:44:18;100333.80;;;7.64;95.61
36254;BME280;22291;52.250;21.228;2023-04-16T05:46:44;100335.89;;;7.70;95.87
36254;BME280;22291;52.250;21.228;2023-04-16T05:49:12;100335.83;;;7.75;95.86
36254;BME280;22291;52.250;21.228;2023-04-16T05:51:38;100335.28;;;7.75;95.40
36254;BME280;22291;52.250;21.228;2023-04-16T05:54:04;100346.27;;;7.79;94.91
36254;BME280;22291;52.250;21.228;2023-04-16T05:56:30;100342.73;;;7.81;94.92
36254;BME280;22291;52.250;21.228;2023-04-16T05:58:56;100347.56;;;7.81;94.83
36254;BME280;22291;52.250;21.228;2023-04-16T06:01:22;100345.43;;;7.81;94.51
36254;BME280;22291;52.250;21.228;2023-04-16T06:03:50;100351.32;;;7.83;94.67
36254;BME280;22291;52.250;21.228;2023-04-16T06:06:17;100353.20;;;7.85;94.41
36254;BME280;22291;52.250;21.228;2023-04-16T06:08:43;100349.45;;;7.83;94.37
36254;BME280;22291;52.250;21.228;2023-04-16T06:11:09;100355.63;;;7.84;94.25
36254;BME280;22291;52.250;21.228;2023-04-16T06:13:37;100356.98;;;7.84;94.01
36254;BME280;22291;52.250;21.228;2023-04-16T06:16:07;100358.59;;;7.85;94.13
36254;BME280;22291;52.250;21.228;2023-04-16T06:18:33;100357.20;;;7.88;94.55
36254;BME280;22291;52.250;21.228;2023-04-16T06:20:59;100360.62;;;7.93;94.72
36254;BME280;22291;52.250;21.228;2023-04-16T06:23:26;100345.23;;;7.96;94.66
36254;BME280;22291;52.250;21.228;2023-04-16T06:25:52;100359.19;;;8.01;94.54
36254;BME280;22291;52.250;21.228;2023-04-16T06:28:23;100360.17;;;8.08;94.69
36254;BME280;22291;52.250;21.228;2023-04-16T06:30:49;100364.36;;;8.16;94.75
36254;BME280;22291;52.250;21.228;2023-04-16T06:33:15;100358.63;;;8.20;94.50
36254;BME280;22291;52.250;21.228;2023-04-16T06:35:42;100361.50;;;8.29;94.83
36254;BME280;22291;52.250;21.228;2023-04-16T06:38:08;100357.91;;;8.34;93.55
36254;BME280;22291;52.250;21.228;2023-04-16T06:40:34;100357.33;;;8.37;93.27
36254;BME280;22291;52.250;21.228;2023-04-16T06:43:03;100351.92;;;8.39;93.09
36254;BME280;22291;52.250;21.228;2023-04-16T06:45:32;100359.59;;;8.51;94.32
36254;BME280;22291;52.250;21.228;2023-04-16T06:48:00;100356.73;;;8.62;93.51
36254;BME280;22291;52.250;21.228;2023-04-16T06:50:28;100359.00;;;8.71;93.62
36254;BME280;22291;52.250;21.228;2023-04-16T06:52:56;100357.45;;;8.84;93.74
36254;BME280;22291;52.250;21.228;2023-04-16T06:55:23;100362.91;;;8.95;93.39
36254;BME280;22291;52.250;21.228;2023-04-16T06:57:49;100364.38;;;9.04;92.66
36254;BME280;22291;52.250;21.228;2023-04-16T07:00:18;100372.91;;;9.11;92.49
36254;BME280;22291;52.250;21.228;2023-04-16T07:02:45;100369.86;;;9.15;90.78
36254;BME280;22291;52.250;21.228;2023-04-16T07:05:11;100369.59;;;9.14;90.25
36254;BME280;22291;52.250;21.228;2023-04-16T07:07:37;100373.05;;;9.17;90.41
36254;BME280;22291;52.250;21.228;2023-04-16T07:10:07;100375.86;;;9.26;90.78
36254;BME280;22291;52.250;21.228;2023-04-16T07:12:36;100380.38;;;9.30;90.21
36254;BME280;22291;52.250;21.228;2023-04-16T07:15:06;100378.90;;;9.38;90.68
36254;BME280;22291;52.250;21.228;2023-04-16T07:17:33;100379.30;;;9.45;90.38
36254;BME280;22291;52.250;21.228;2023-04-16T07:19:59;100377.95;;;9.45;89.02
36254;BME280;22291;52.250;21.228;2023-04-16T07:22:25;100386.91;;;9.43;87.75
36254;BME280;22291;52.250;21.228;2023-04-16T07:24:51;100386.17;;;9.38;88.32
36254;BME280;22291;52.250;21.228;2023-04-16T07:27:17;100384.83;;;9.38;88.45
36254;BME280;22291;52.250;21.228;2023-04-16T07:29:44;100399.05;;;9.43;88.66
36254;BME280;22291;52.250;21.228;2023-04-16T07:32:12;100394.09;;;9.48;88.74
36254;BME280;22291;52.250;21.228;2023-04-16T07:34:38;100398.41;;;9.49;87.78
36254;BME280;22291;52.250;21.228;2023-04-16T07:37:04;100403.53;;;9.48;87.76
36254;BME280;22291;52.250;21.228;2023-04-16T07:39:30;100407.20;;;9.54;88.17
36254;BME280;22291;52.250;21.228;2023-04-16T07:41:56;100398.00;;;9.56;86.91
36254;BME280;22291;52.250;21.228;2023-04-16T07:44:23;100406.64;;;9.55;87.10
36254;BME280;22291;52.250;21.228;2023-04-16T07:46:49;100407.46;;;9.56;86.42
36254;BME280;22291;52.250;21.228;2023-04-16T07:49:15;100406.97;;;9.53;86.44
36254;BME280;22291;52.250;21.228;2023-04-16T07:51:42;100410.16;;;9.56;86.26
36254;BME280;22291;52.250;21.228;2023-04-16T07:54:10;100416.61;;;9.57;86.27
36254;BME280;22291;52.250;21.228;2023-04-16T07:56:37;100412.00;;;9.58;86.46
36254;BME280;22291;52.250;21.228;2023-04-16T07:59:03;100417.28;;;9.65;87.10
36254;BME280;22291;52.250;21.228;2023-04-16T08:01:30;100418.43;;;9.76;86.89
36254;BME280;22291;52.250;21.228;2023-04-16T08:03:56;100415.86;;;9.82;86.81
36254;BME280;22291;52.250;21.228;2023-04-16T08:06:23;100420.00;;;9.90;86.62
36254;BME280;22291;52.250;21.228;2023-04-16T08:08:51;100421.22;;;9.98;86.52
36254;BME280;22291;52.250;21.228;2023-04-16T08:11:17;100425.91;;;10.06;86.36
36254;BME280;22291;52.250;21.228;2023-04-16T08:13:44;100428.14;;;10.16;86.49
36254;BME280;22291;52.250;21.228;2023-04-16T08:16:10;100433.18;;;10.20;85.27
36254;BME280;22291;52.250;21.228;2023-04-16T08:18:36;100436.11;;;10.23;85.63
36254;BME280;22291;52.250;21.228;2023-04-16T08:21:03;100439.23;;;10.28;84.65
36254;BME280;22291;52.250;21.228;2023-04-16T08:23:29;100436.53;;;10.28;84.65
36254;BME280;22291;52.250;21.228;2023-04-16T08:25:56;100438.36;;;10.33;84.71
36254;BME280;22291;52.250;21.228;2023-04-16T08:28:22;100437.20;;;10.36;84.59
36254;BME280;22291;52.250;21.228;2023-04-16T08:30:49;100442.98;;;10.43;84.90
36254;BME280;22291;52.250;21.228;2023-04-16T08:33:15;100445.88;;;10.47;83.80
36254;BME280;22291;52.250;21.228;2023-04-16T08:35:42;100450.27;;;10.45;83.71
36254;BME280;22291;52.250;21.228;2023-04-16T08:38:08;100447.79;;;10.46;83.36
36254;BME280;22291;52.250;21.228;2023-04-16T08:40:36;100441.03;;;10.46;83.10
36254;BME280;22291;52.250;21.228;2023-04-16T08:43:12;100439.64;;;10.49;83.23
36254;BME280;22291;52.250;21.228;2023-04-16T08:45:37;100447.75;;;10.49;82.10
36254;BME280;22291;52.250;21.228;2023-04-16T08:48:05;100446.74;;;10.45;81.69
36254;BME280;22291;52.250;21.228;2023-04-16T08:50:32;100455.27;;;10.38;81.60
36254;BME280;22291;52.250;21.228;2023-04-16T08:53:05;100459.73;;;10.32;81.16
36254;BME280;22291;52.250;21.228;2023-04-16T08:55:37;100448.70;;;10.28;81.46
36254;BME280;22291;52.250;21.228;2023-04-16T08:58:12;100452.45;;;10.29;82.29
36254;BME280;22291;52.250;21.228;2023-04-16T09:00:39;100452.15;;;10.31;81.42
36254;BME280;22291;52.250;21.228;2023-04-16T09:03:07;100458.83;;;10.36;82.28
36254;BME280;22291;52.250;21.228;2023-04-16T09:05:36;100457.06;;;10.43;82.50
36254;BME280;22291;52.250;21.228;2023-04-16T09:08:06;100478.55;;;10.62;82.53
36254;BME280;22291;52.250;21.228;2023-04-16T09:10:33;100463.15;;;10.62;82.67
36254;BME280;22291;52.250;21.228;2023-04-16T09:13:00;100469.69;;;10.73;81.98
36254;BME280;22291;52.250;21.228;2023-04-16T09:15:26;100469.48;;;10.80;82.14
36254;BME280;22291;52.250;21.228;2023-04-16T09:17:54;100468.69;;;10.91;81.74
36254;BME280;22291;52.250;21.228;2023-04-16T09:20:24;100474.37;;;11.03;80.98
36254;BME280;22291;52.250;21.228;2023-04-16T09:22:50;100475.53;;;11.11;81.31
36254;BME280;22291;52.250;21.228;2023-04-16T09:25:19;100474.00;;;11.19;79.83
36254;BME280;22291;52.250;21.228;2023-04-16T09:27:50;100471.05;;;11.29;80.37
36254;BME280;22291;52.250;21.228;2023-04-16T09:30:25;100470.05;;;11.36;79.75
36254;BME280;22291;52.250;21.228;2023-04-16T09:35:45;100489.36;;;11.44;78.19
36254;BME280;22291;52.250;21.228;2023-04-16T09:38:14;100483.59;;;11.36;78.22
36254;BME280;22291;52.250;21.228;2023-04-16T09:40:41;100486.91;;;11.33;77.63
36254;BME280;22291;52.250;21.228;2023-04-16T09:43:13;100483.20;;;11.40;79.02
36254;BME280;22291;52.250;21.228;2023-04-16T09:45:51;100487.08;;;11.48;78.79
36254;BME280;22291;52.250;21.228;2023-04-16T09:48:32;100493.20;;;11.63;79.50
36254;BME280;22291;52.250;21.228;2023-04-16T09:50:59;100490.73;;;11.75;78.84
36254;BME280;22291;52.250;21.228;2023-04-16T09:53:28;100492.92;;;11.84;78.66
36254;BME280;22291;52.250;21.228;2023-04-16T09:56:00;100493.72;;;11.96;78.79
36254;BME280;22291;52.250;21.228;2023-04-16T09:58:29;100499.73;;;12.04;78.50
36254;BME280;22291;52.250;21.228;2023-04-16T10:01:05;100506.22;;;12.14;78.04
36254;BME280;22291;52.250;21.228;2023-04-16T10:03:34;100505.20;;;12.22;77.21
36254;BME280;22291;52.250;21.228;2023-04-16T10:08:48;100499.34;;;12.08;75.75
36254;BME280;22291;52.250;21.228;2023-04-16T10:11:19;100503.09;;;12.10;75.49
36254;BME280;22291;52.250;21.228;2023-04-16T10:13:47;100506.52;;;12.04;75.18
36254;BME280;22291;52.250;21.228;2023-04-16T10:16:14;100511.81;;;11.98;75.23
36254;BME280;22291;52.250;21.228;2023-04-16T10:18:44;100512.24;;;12.03;75.55
36254;BME280;22291;52.250;21.228;2023-04-16T10:21:11;100512.02;;;12.10;76.12
36254;BME280;22291;52.250;21.228;2023-04-16T10:23:39;100507.86;;;12.24;76.63
36254;BME280;22291;52.250;21.228;2023-04-16T10:26:05;100512.02;;;12.39;76.41
36254;BME280;22291;52.250;21.228;2023-04-16T10:28:32;100520.17;;;12.48;75.69
36254;BME280;22291;52.250;21.228;2023-04-16T10:31:02;100520.44;;;12.58;75.43
36254;BME280;22291;52.250;21.228;2023-04-16T10:33:32;100526.91;;;12.59;74.20
36254;BME280;22291;52.250;21.228;2023-04-16T10:36:14;100523.47;;;12.56;74.07
36254;BME280;22291;52.250;21.228;2023-04-16T10:38:46;100521.81;;;12.66;74.34
36254;BME280;22291;52.250;21.228;2023-04-16T10:41:15;100522.86;;;12.77;74.31
36254;BME280;22291;52.250;21.228;2023-04-16T10:43:44;100528.60;;;12.75;73.02
36254;BME280;22291;52.250;21.228;2023-04-16T10:46:32;100529.17;;;12.75;72.88
36254;BME280;22291;52.250;21.228;2023-04-16T10:49:01;100528.86;;;12.76;72.90
36254;BME280;22291;52.250;21.228;2023-04-16T10:51:33;100526.23;;;12.82;73.33
36254;BME280;22291;52.250;21.228;2023-04-16T10:56:39;100534.07;;;13.01;72.97
36254;BME280;22291;52.250;21.228;2023-04-16T10:59:07;100542.78;;;13.10;72.49
36254;BME280;22291;52.250;21.228;2023-04-16T11:01:47;100533.50;;;13.11;71.83
36254;BME280;22291;52.250;21.228;2023-04-16T11:07:46;100535.19;;;13.26;71.59
36254;BME280;22291;52.250;21.228;2023-04-16T11:12:23;100532.47;;;13.44;70.94
36254;BME280;22291;52.250;21.228;2023-04-16T11:15:03;100535.95;;;13.53;70.87
36254;BME280;22291;52.250;21.228;2023-04-16T11:17:39;100536.34;;;13.67;71.13
36254;BME280;22291;52.250;21.228;2023-04-16T11:20:14;100539.81;;;13.85;71.24
36254;BME280;22291;52.250;21.228;2023-04-16T11:22:42;100538.17;;;13.92;70.30
36254;BME280;22291;52.250;21.228;2023-04-16T11:25:10;100535.20;;;14.00;70.09
36254;BME280;22291;52.250;21.228;2023-04-16T11:27:38;100537.70;;;14.14;69.77
36254;BME280;22291;52.250;21.228;2023-04-16T11:30:07;100534.29;;;14.26;69.47
36254;BME280;22291;52.250;21.228;2023-04-16T11:32:37;100537.23;;;14.42;69.53
36254;BME280;22291;52.250;21.228;2023-04-16T11:35:12;100535.09;;;14.56;68.79
36254;BME280;22291;52.250;21.228;2023-04-16T11:37:41;100540.64;;;14.68;68.60
36254;BME280;22291;52.250;21.228;2023-04-16T11:40:09;100537.61;;;14.76;67.33
36254;BME280;22291;52.250;21.228;2023-04-16T11:42:37;100544.39;;;14.70;67.75
36254;BME280;22291;52.250;21.228;2023-04-16T11:45:07;100537.90;;;14.83;67.98
36254;BME280;22291;52.250;21.228;2023-04-16T11:47:49;100528.80;;;15.00;68.09
36254;BME280;22291;52.250;21.228;2023-04-16T11:50:22;100533.10;;;15.22;68.03
36254;BME280;22291;52.250;21.228;2023-04-16T11:52:51;100532.39;;;15.46;67.86
36254;BME280;22291;52.250;21.228;2023-04-16T11:55:20;100526.58;;;15.81;68.17
36254;BME280;22291;52.250;21.228;2023-04-16T11:57:47;100523.98;;;16.53;68.27
36254;BME280;22291;52.250;21.228;2023-04-16T12:00:15;100528.59;;;17.30;68.37
36254;BME280;22291;52.250;21.228;2023-04-16T12:02:44;100520.30;;;18.02;67.11
36254;BME280;22291;52.250;21.228;2023-04-16T12:05:30;100521.91;;;18.55;64.75
36254;BME280;22291;52.250;21.228;2023-04-16T12:08:05;100524.86;;;18.91;62.73
36254;BME280;22291;52.250;21.228;2023-04-16T12:10:33;100522.69;;;19.20;62.16
36254;BME280;22291;52.250;21.228;2023-04-16T12:13:14;100523.30;;;19.85;61.92
36254;BME280;22291;52.250;21.228;2023-04-16T12:15:54;100520.09;;;20.43;59.70
36254;BME280;22291;52.250;21.228;2023-04-16T12:18:23;100523.25;;;20.45;57.67
36254;BME280;22291;52.250;21.228;2023-04-16T12:20:52;100517.41;;;20.33;56.46
36254;BME280;22291;52.250;21.228;2023-04-16T12:23:32;100522.17;;;20.23;56.46
36254;BME280;22291;52.250;21.228;2023-04-16T12:26:07;100512.44;;;20.42;56.19
36254;BME280;22291;52.250;21.228;2023-04-16T12:28:36;100503.23;;;20.58;55.76
36254;BME280;22291;52.250;21.228;2023-04-16T12:31:05;100496.45;;;20.78;55.32
36254;BME280;22291;52.250;21.228;2023-04-16T12:33:31;100506.95;;;21.37;55.72
36254;BME280;22291;52.250;21.228;2023-04-16T12:35:58;100509.70;;;21.74;54.60
36254;BME280;22291;52.250;21.228;2023-04-16T12:38:24;100506.44;;;21.86;52.85
36254;BME280;22291;52.250;21.228;2023-04-16T12:40:52;100508.34;;;22.02;52.24
36254;BME280;22291;52.250;21.228;2023-04-16T12:43:20;100514.20;;;21.97;50.84
36254;BME280;22291;52.250;21.228;2023-04-16T12:45:48;100499.89;;;21.56;50.17
36254;BME280;22291;52.250;21.228;2023-04-16T12:48:14;100504.97;;;21.17;49.66
36254;BME280;22291;52.250;21.228;2023-04-16T12:50:41;100499.20;;;20.78;49.52
36254;BME280;22291;52.250;21.228;2023-04-16T12:53:09;100501.45;;;20.42;49.32
36254;BME280;22291;52.250;21.228;2023-04-16T12:55:36;100501.85;;;19.91;47.97
36254;BME280;22291;52.250;21.228;2023-04-16T12:58:02;100497.30;;;19.23;48.58
36254;BME280;22291;52.250;21.228;2023-04-16T13:00:28;100490.42;;;18.74;49.73
36254;BME280;22291;52.250;21.228;2023-04-16T13:02:55;100498.30;;;18.40;49.73